createdAt,value
2023-01-30T00:01:14.705Z,100780.41
2023-01-30T00:03:41.370Z,100781.84
2023-01-30T00:06:07.992Z,100791.25
2023-01-30T00:08:34.515Z,100782.56
2023-01-30T00:11:06.300Z,100788.81
2023-01-30T00:13:33.686Z,100782.06
2023-01-30T00:16:00.480Z,100781.91
2023-01-30T00:18:27.099Z,100782.03
2023-01-30T00:21:00.939Z,100784.72
2023-01-30T00:23:28.558Z,100786.88
2023-01-30T00:25:55.415Z,100786.72
2023-01-30T00:28:22.501Z,100788.31
2023-01-30T00:30:53.094Z,100788.03
2023-01-30T00:33:20.619Z,100786.16
2023-01-30T00:35:49.071Z,100787.16
2023-01-30T00:38:16.510Z,100778.19
2023-01-30T00:40:43.994Z,100782.28
2023-01-30T00:43:34.347Z,100785.91
2023-01-30T00:46:21.408Z,100790.91
2023-01-30T00:48:48.053Z,100790.03
2023-01-30T00:51:14.796Z,100800.06
2023-01-30T00:53:41.327Z,100811.09
2023-01-30T00:56:07.967Z,100805.56
2023-01-30T00:58:34.536Z,100824.34
2023-01-30T01:01:01.139Z,100826.72
2023-01-30T01:03:27.685Z,100836.47
2023-01-30T01:05:54.192Z,100826.22
2023-01-30T01:08:22.658Z,100833.28
2023-01-30T01:10:49.489Z,100835.69
2023-01-30T01:13:16.097Z,100827.06
2023-01-30T01:15:42.638Z,100820.69
2023-01-30T01:18:09.283Z,100822.03
2023-01-30T01:20:35.782Z,100821.53
2023-01-30T01:23:02.330Z,100816.09
2023-01-30T01:25:28.990Z,100815.56
2023-01-30T01:27:55.730Z,100808.03
2023-01-30T01:30:22.563Z,100812.13
2023-01-30T01:32:49.262Z,100805.25
2023-01-30T01:35:16.100Z,100801.41
2023-01-30T01:37:42.920Z,100801.53
2023-01-30T01:40:36.561Z,100799.25
2023-01-30T01:43:14.339Z,100791.97
2023-01-30T01:45:41.080Z,100770.50
2023-01-30T01:48:37.791Z,100767.28
2023-01-30T01:51:14.817Z,100763.72
2023-01-30T01:53:47.340Z,100770.94
2023-01-30T01:56:16.736Z,100761.72
2023-01-30T01:58:50.389Z,100761.59
2023-01-30T02:04:04.058Z,100769.66
2023-01-30T02:06:31.540Z,100762.34
2023-01-30T02:09:03.248Z,100764.88
2023-01-30T02:11:35.021Z,100760.38
2023-01-30T02:14:02.941Z,100762.97
2023-01-30T02:16:29.533Z,100762.81
2023-01-30T02:18:56.233Z,100771.75
2023-01-30T02:21:47.842Z,100767.84
2023-01-30T02:24:20.444Z,100767.16
2023-01-30T02:27:11.877Z,100776.00
2023-01-30T02:29:53.836Z,100776.78
2023-01-30T02:32:44.208Z,100774.09
2023-01-30T02:35:25.810Z,100778.03
2023-01-30T02:38:12.716Z,100773.22
2023-01-30T02:40:54.388Z,100775.84
2023-01-30T02:43:35.885Z,100781.66
2023-01-30T02:46:33.180Z,100781.09
2023-01-30T02:49:07.320Z,100787.94
2023-01-30T02:51:38.966Z,100793.09
2023-01-30T02:54:07.842Z,100807.06
2023-01-30T02:56:55.148Z,100819.44
2023-01-30T02:59:26.754Z,100813.63
2023-01-30T03:02:08.467Z,100817.06
2023-01-30T03:05:20.644Z,100823.56
2023-01-30T03:08:15.113Z,100833.75
2023-01-30T03:10:49.460Z,100844.66
2023-01-30T03:13:20.409Z,100857.22
2023-01-30T03:15:51.090Z,100869.84
2023-01-30T03:18:19.197Z,100871.09
2023-01-30T03:20:46.827Z,100866.97
2023-01-30T03:23:14.279Z,100874.84
2023-01-30T03:25:43.449Z,100881.75
2023-01-30T03:28:11.537Z,100906.19
2023-01-30T03:30:38.402Z,100905.81
2023-01-30T03:33:05.062Z,100891.91
2023-01-30T03:35:31.919Z,100894.09
2023-01-30T03:37:59.082Z,100876.56
2023-01-30T03:40:26.060Z,100860.13
2023-01-30T03:42:52.632Z,100863.75
2023-01-30T03:45:19.465Z,100878.84
2023-01-30T03:47:46.206Z,100870.34
2023-01-30T03:50:12.991Z,100873.41
2023-01-30T03:52:39.588Z,100868.31
2023-01-30T03:55:06.558Z,100870.28
2023-01-30T03:57:33.202Z,100878.09
2023-01-30T03:59:59.783Z,100880.19
2023-01-30T04:02:26.340Z,100883.69
2023-01-30T04:04:53.417Z,100864.16
2023-01-30T04:07:20.099Z,100871.91
2023-01-30T04:09:46.678Z,100890.06
2023-01-30T04:12:13.934Z,100866.81
2023-01-30T04:14:40.581Z,100862.53
2023-01-30T04:17:07.162Z,100872.50
2023-01-30T04:19:33.961Z,100877.47
2023-01-30T04:22:00.534Z,100870.47
2023-01-30T04:24:27.022Z,100865.78
2023-01-30T04:26:53.617Z,100871.31
2023-01-30T04:29:20.170Z,100866.03
2023-01-30T04:31:46.698Z,100869.16
2023-01-30T04:34:13.362Z,100860.19
2023-01-30T04:36:39.969Z,100845.19
2023-01-30T04:39:06.464Z,100851.22
2023-01-30T04:41:33.104Z,100833.41
2023-01-30T04:43:59.706Z,100839.97
2023-01-30T04:46:26.250Z,100854.13
2023-01-30T04:48:52.919Z,100846.88
2023-01-30T04:51:19.568Z,100845.50
2023-01-30T04:53:46.093Z,100848.34
2023-01-30T04:56:12.636Z,100829.13
2023-01-30T04:58:39.211Z,100829.69
2023-01-30T05:01:15.648Z,100837.56
2023-01-30T05:03:42.271Z,100851.28
2023-01-30T05:06:08.769Z,100847.22
2023-01-30T05:08:35.330Z,100832.34
2023-01-30T05:11:01.953Z,100828.94
2023-01-30T05:13:28.434Z,100831.00
2023-01-30T05:15:55.002Z,100831.78
2023-01-30T05:18:21.581Z,100814.00
2023-01-30T05:20:48.128Z,100835.41
2023-01-30T05:23:14.902Z,100834.06
2023-01-30T05:25:41.646Z,100840.78
2023-01-30T05:28:08.169Z,100829.41
2023-01-30T05:30:34.821Z,100833.03
2023-01-30T05:33:01.537Z,100825.72
2023-01-30T05:35:28.097Z,100828.41
2023-01-30T05:37:54.684Z,100815.94
2023-01-30T05:40:21.296Z,100805.94
2023-01-30T05:42:47.866Z,100804.72
2023-01-30T05:45:14.553Z,100802.84
2023-01-30T05:47:41.152Z,100815.78
2023-01-30T05:50:08.231Z,100808.72
2023-01-30T05:52:34.745Z,100792.34
2023-01-30T05:55:01.606Z,100801.16
2023-01-30T05:57:28.104Z,100808.97
2023-01-30T05:59:54.633Z,100822.28
2023-01-30T06:02:21.219Z,100832.84
2023-01-30T06:04:47.726Z,100823.16
2023-01-30T06:07:14.792Z,100816.97
2023-01-30T06:09:41.356Z,100802.19
2023-01-30T06:12:08.031Z,100806.34
2023-01-30T06:14:34.594Z,100805.88
2023-01-30T06:17:01.266Z,100821.59
2023-01-30T06:19:27.780Z,100822.25
2023-01-30T06:21:54.427Z,100812.59
2023-01-30T06:24:20.970Z,100806.03
2023-01-30T06:26:47.545Z,100806.25
2023-01-30T06:29:14.210Z,100819.94
2023-01-30T06:31:40.848Z,100822.19
2023-01-30T06:34:07.406Z,100830.75
2023-01-30T06:36:34.055Z,100842.00
2023-01-30T06:39:00.654Z,100838.06
2023-01-30T06:41:27.162Z,100839.03
2023-01-30T06:43:53.933Z,100845.03
2023-01-30T06:46:20.673Z,100854.03
2023-01-30T06:48:47.626Z,100859.00
2023-01-30T06:51:14.199Z,100856.47
2023-01-30T06:53:40.720Z,100862.16
2023-01-30T06:56:07.482Z,100866.22
2023-01-30T06:58:34.057Z,100866.31
2023-01-30T07:01:02.456Z,100868.03
2023-01-30T07:03:29.101Z,100870.47
2023-01-30T07:05:55.826Z,100862.16
2023-01-30T07:08:24.217Z,100852.03
2023-01-30T07:10:51.045Z,100864.00
2023-01-30T07:13:17.707Z,100876.63
2023-01-30T07:15:44.668Z,100871.78
2023-01-30T07:18:11.323Z,100870.91
2023-01-30T07:20:38.004Z,100869.59
2023-01-30T07:23:04.637Z,100867.34
2023-01-30T07:25:31.347Z,100880.84
2023-01-30T07:28:01.180Z,100865.78
2023-01-30T07:30:30.947Z,100871.59
2023-01-30T07:32:59.381Z,100861.72
2023-01-30T07:35:28.530Z,100868.25
2023-01-30T07:37:55.358Z,100874.53
2023-01-30T07:40:23.041Z,100876.16
2023-01-30T07:43:03.264Z,100877.41
2023-01-30T07:45:56.015Z,100870.34
2023-01-30T07:48:22.763Z,100866.41
2023-01-30T07:50:49.289Z,100870.59
2023-01-30T07:53:18.480Z,100890.19
2023-01-30T07:55:45.417Z,100904.19
2023-01-30T07:58:16.216Z,100904.75
2023-01-30T08:00:43.242Z,100908.16
2023-01-30T08:03:17.271Z,100924.19
2023-01-30T08:05:46.928Z,100919.00
2023-01-30T08:08:13.769Z,100916.44
2023-01-30T08:10:40.356Z,100931.22
2023-01-30T08:13:06.879Z,100924.97
2023-01-30T08:15:33.618Z,100916.38
2023-01-30T08:18:00.937Z,100934.00
2023-01-30T08:20:28.570Z,100940.47
2023-01-30T08:22:55.613Z,100938.16
2023-01-30T08:25:22.909Z,100945.72
2023-01-30T08:27:49.828Z,100954.44
2023-01-30T08:30:17.195Z,100959.00
2023-01-30T08:32:44.378Z,100962.66
2023-01-30T08:35:10.958Z,100955.69
2023-01-30T08:37:39.768Z,100952.75
2023-01-30T08:40:07.635Z,100960.25
2023-01-30T08:42:34.124Z,100970.09
2023-01-30T08:45:00.686Z,100967.28
2023-01-30T08:47:27.363Z,100959.16
2023-01-30T08:49:54.008Z,100950.81
2023-01-30T08:52:20.728Z,100960.00
2023-01-30T08:54:48.320Z,100961.25
2023-01-30T08:57:15.695Z,100958.28
2023-01-30T08:59:42.286Z,100957.75
2023-01-30T09:02:14.134Z,100948.31
2023-01-30T09:04:40.669Z,100938.69
2023-01-30T09:07:07.229Z,100932.38
2023-01-30T09:09:34.016Z,100947.03
2023-01-30T09:12:00.520Z,100951.84
2023-01-30T09:14:27.179Z,100939.91
2023-01-30T09:16:55.736Z,100957.69
2023-01-30T09:19:27.331Z,100952.13
2023-01-30T09:21:54.562Z,100951.56
2023-01-30T09:24:26.556Z,100958.53
2023-01-30T09:26:54.630Z,100963.06
2023-01-30T09:29:21.216Z,100963.28
2023-01-30T09:31:47.825Z,100970.88
2023-01-30T09:34:14.429Z,100985.88
2023-01-30T09:36:41.273Z,100998.38
2023-01-30T09:39:08.399Z,100981.47
2023-01-30T09:41:55.331Z,100981.13
2023-01-30T09:44:32.894Z,100980.31
2023-01-30T09:47:08.395Z,100990.59
2023-01-30T09:49:53.215Z,100988.59
2023-01-30T09:52:52.497Z,100977.72
2023-01-30T09:55:24.082Z,100980.66
2023-01-30T09:57:51.851Z,100973.00
2023-01-30T10:00:30.534Z,100973.78
2023-01-30T10:03:10.811Z,100960.97
2023-01-30T10:05:54.984Z,100973.19
2023-01-30T10:08:42.766Z,100978.47
2023-01-30T10:11:45.534Z,100961.50
2023-01-30T10:14:11.989Z,100956.41
2023-01-30T10:17:03.251Z,100949.22
2023-01-30T10:19:36.908Z,100958.19
2023-01-30T10:22:29.704Z,100953.28
2023-01-30T10:25:13.121Z,100978.84
2023-01-30T10:27:47.762Z,100972.25
2023-01-30T10:30:17.034Z,100972.59
2023-01-30T10:32:56.242Z,100972.16
2023-01-30T10:35:27.441Z,100973.72
2023-01-30T10:38:05.443Z,100960.94
2023-01-30T10:40:47.025Z,100964.81
2023-01-30T10:43:46.020Z,100963.09
2023-01-30T10:46:15.533Z,100958.84
2023-01-30T10:49:02.912Z,100941.44
2023-01-30T10:51:32.568Z,100950.09
2023-01-30T10:54:05.301Z,100953.50
2023-01-30T10:56:45.255Z,100939.16
2023-01-30T10:59:43.361Z,100930.94
2023-01-30T11:02:15.964Z,100930.19
2023-01-30T11:05:09.627Z,100945.31
2023-01-30T11:07:36.242Z,100947.97
2023-01-30T11:10:02.868Z,100941.94
2023-01-30T11:12:29.449Z,100941.09
2023-01-30T11:15:04.924Z,100945.34
2023-01-30T11:17:37.037Z,100946.78
2023-01-30T11:20:07.829Z,100942.56
2023-01-30T11:22:36.645Z,100929.03
2023-01-30T11:25:16.651Z,100935.59
2023-01-30T11:27:47.217Z,100921.78
2023-01-30T11:30:20.338Z,100910.44
2023-01-30T11:32:49.635Z,100903.03
2023-01-30T11:35:16.257Z,100900.78
2023-01-30T11:37:45.083Z,100904.75
2023-01-30T11:40:31.230Z,100903.06
2023-01-30T11:43:06.606Z,100903.81
2023-01-30T11:45:46.235Z,100900.81
2023-01-30T11:48:33.798Z,100908.31
2023-01-30T11:51:09.847Z,100902.31
2023-01-30T11:53:45.108Z,100893.56
2023-01-30T11:56:17.346Z,100895.34
2023-01-30T11:58:48.188Z,100888.75
2023-01-30T12:01:16.245Z,100883.53
2023-01-30T12:03:49.636Z,100881.78
2023-01-30T12:06:31.380Z,100871.53
2023-01-30T12:08:58.611Z,100857.75
2023-01-30T12:11:42.392Z,100863.25
2023-01-30T12:14:15.285Z,100850.75
2023-01-30T12:16:51.451Z,100849.97
2023-01-30T12:19:28.423Z,100838.50
2023-01-30T12:22:11.304Z,100832.91
2023-01-30T12:24:49.006Z,100836.69
2023-01-30T12:30:47.479Z,100818.44
2023-01-30T12:35:52.178Z,100816.94
2023-01-30T12:38:38.507Z,100817.88
2023-01-30T12:41:21.212Z,100798.84
2023-01-30T12:43:59.301Z,100796.78
2023-01-30T12:46:40.871Z,100801.78
2023-01-30T12:49:16.629Z,100813.66
2023-01-30T12:52:04.947Z,100808.13
2023-01-30T12:55:07.866Z,100817.41
2023-01-30T12:57:56.859Z,100823.97
2023-01-30T13:00:47.905Z,100808.56
2023-01-30T13:03:32.995Z,100798.88
2023-01-30T13:06:31.995Z,100796.63
2023-01-30T13:09:17.758Z,100805.91
2023-01-30T13:11:56.387Z,100799.38
2023-01-30T13:14:40.714Z,100798.38
2023-01-30T13:17:31.960Z,100793.91
2023-01-30T13:20:21.420Z,100789.59
2023-01-30T13:23:02.795Z,100781.69
2023-01-30T13:25:58.724Z,100788.00
2023-01-30T13:28:38.171Z,100771.72
2023-01-30T13:31:09.350Z,100774.28
2023-01-30T13:33:40.032Z,100768.03
2023-01-30T13:36:09.674Z,100771.47
2023-01-30T13:38:42.039Z,100770.44
2023-01-30T13:41:12.667Z,100765.53
2023-01-30T13:43:44.503Z,100763.97
2023-01-30T13:46:20.463Z,100772.41
2023-01-30T13:49:01.351Z,100777.22
2023-01-30T13:51:41.685Z,100762.81
2023-01-30T13:54:26.043Z,100763.56
2023-01-30T13:57:14.954Z,100765.00
2023-01-30T14:00:16.972Z,100760.44
2023-01-30T14:03:08.647Z,100757.06
2023-01-30T14:06:02.958Z,100765.81
2023-01-30T14:08:38.296Z,100762.91
2023-01-30T14:11:05.144Z,100765.00
2023-01-30T14:13:32.375Z,100761.75
2023-01-30T14:16:04.563Z,100770.16
2023-01-30T14:18:38.676Z,100766.66
2023-01-30T14:21:25.553Z,100768.72
2023-01-30T14:23:56.645Z,100775.31
2023-01-30T14:26:47.893Z,100768.53
2023-01-30T14:29:42.357Z,100775.69
2023-01-30T14:32:14.717Z,100773.16
2023-01-30T14:34:46.299Z,100767.91
2023-01-30T14:37:41.551Z,100747.38
2023-01-30T14:40:23.545Z,100740.19
2023-01-30T14:43:11.857Z,100729.41
2023-01-30T14:45:49.891Z,100735.72
2023-01-30T14:48:41.691Z,100750.56
2023-01-30T14:51:37.292Z,100747.53
2023-01-30T14:54:14.004Z,100747.28
2023-01-30T14:56:50.086Z,100750.88
2023-01-30T14:59:16.599Z,100757.56
2023-01-30T15:02:18.266Z,100754.56
2023-01-30T15:05:29.871Z,100758.28
2023-01-30T15:08:21.008Z,100781.38
2023-01-30T15:10:57.364Z,100792.97
2023-01-30T15:13:49.843Z,100786.78
2023-01-30T15:16:25.351Z,100786.94
2023-01-30T15:19:02.840Z,100780.34
2023-01-30T15:21:52.629Z,100787.13
2023-01-30T15:24:27.738Z,100788.69
2023-01-30T15:27:19.034Z,100792.22
2023-01-30T15:30:06.591Z,100797.72
2023-01-30T15:32:34.032Z,100802.38
2023-01-30T15:35:12.186Z,100803.03
2023-01-30T15:37:47.143Z,100792.19
2023-01-30T15:40:18.262Z,100790.63
2023-01-30T15:43:20.341Z,100793.63
2023-01-30T15:46:30.168Z,100780.06
2023-01-30T15:49:18.294Z,100792.75
2023-01-30T15:51:45.633Z,100787.88
2023-01-30T15:54:18.345Z,100791.50
2023-01-30T15:56:48.813Z,100793.34
2023-01-30T15:59:34.920Z,100803.63
2023-01-30T16:02:13.249Z,100793.84
2023-01-30T16:04:39.830Z,100791.56
2023-01-30T16:07:25.783Z,100792.34
2023-01-30T16:10:07.193Z,100792.34
2023-01-30T16:12:41.189Z,100797.63
2023-01-30T16:15:19.684Z,100794.63
2023-01-30T16:18:14.668Z,100809.44
2023-01-30T16:21:02.712Z,100808.41
2023-01-30T16:23:57.332Z,100793.34
2023-01-30T16:26:24.405Z,100802.84
2023-01-30T16:28:58.569Z,100805.63
2023-01-30T16:31:27.501Z,100808.38
2023-01-30T16:33:54.160Z,100796.59
2023-01-30T16:36:20.726Z,100796.59
2023-01-30T16:38:49.139Z,100803.09
2023-01-30T16:41:35.863Z,100801.16
2023-01-30T16:44:23.164Z,100814.16
2023-01-30T16:46:56.129Z,100809.41
2023-01-30T16:49:30.354Z,100809.66
2023-01-30T16:52:12.512Z,100814.91
2023-01-30T16:54:41.306Z,100825.22
2023-01-30T16:57:16.705Z,100820.69
2023-01-30T16:59:47.490Z,100823.44
2023-01-30T17:02:35.277Z,100824.72
2023-01-30T17:05:26.309Z,100823.97
2023-01-30T17:07:55.827Z,100829.22
2023-01-30T17:10:28.516Z,100827.97
2023-01-30T17:12:55.822Z,100821.94
2023-01-30T17:15:22.410Z,100819.69
2023-01-30T17:17:49.000Z,100818.66
2023-01-30T17:20:18.888Z,100813.94
2023-01-30T17:22:48.097Z,100809.88
2023-01-30T17:25:20.693Z,100823.16
2023-01-30T17:27:48.161Z,100823.91
2023-01-30T17:30:16.007Z,100818.63
2023-01-30T17:32:42.561Z,100824.34
2023-01-30T17:35:11.291Z,100828.34
2023-01-30T17:37:38.371Z,100825.69
2023-01-30T17:40:16.553Z,100821.41
2023-01-30T17:42:43.305Z,100832.44
2023-01-30T17:45:10.621Z,100824.47
2023-01-30T17:47:37.205Z,100829.41
2023-01-30T17:50:04.750Z,100820.44
2023-01-30T17:52:31.366Z,100824.47
2023-01-30T17:54:58.050Z,100833.97
2023-01-30T17:57:25.634Z,100827.97
2023-01-30T17:59:52.281Z,100838.22
2023-01-30T18:02:18.828Z,100841.50
2023-01-30T18:04:45.439Z,100841.75
2023-01-30T18:07:14.400Z,100843.22
2023-01-30T18:09:40.920Z,100854.00
2023-01-30T18:12:07.681Z,100852.50
2023-01-30T18:14:34.244Z,100859.00
2023-01-30T18:17:01.440Z,100856.75
2023-01-30T18:19:29.208Z,100854.75
2023-01-30T18:21:58.255Z,100859.00
2023-01-30T18:24:24.846Z,100857.53
2023-01-30T18:26:51.749Z,100860.00
2023-01-30T18:29:18.349Z,100858.50
2023-01-30T18:31:45.014Z,100850.22
2023-01-30T18:34:11.878Z,100862.00
2023-01-30T18:36:38.838Z,100863.53
2023-01-30T18:39:06.992Z,100867.25
2023-01-30T18:41:35.332Z,100863.94
2023-01-30T18:44:04.820Z,100863.41
2023-01-30T18:46:32.550Z,100865.22
2023-01-30T18:48:59.845Z,100861.22
2023-01-30T18:51:29.384Z,100856.72
2023-01-30T18:53:56.459Z,100858.94
2023-01-30T18:56:26.591Z,100866.97
2023-01-30T18:58:56.510Z,100861.72
2023-01-30T19:01:28.418Z,100851.41
2023-01-30T19:03:56.632Z,100863.19
2023-01-30T19:06:23.944Z,100859.41
2023-01-30T19:08:50.549Z,100857.16
2023-01-30T19:11:39.911Z,100863.41
2023-01-30T19:14:08.062Z,100861.22
2023-01-30T19:16:36.377Z,100869.91
2023-01-30T19:19:03.351Z,100871.63
2023-01-30T19:21:30.080Z,100872.06
2023-01-30T19:23:56.764Z,100877.31
2023-01-30T19:26:24.819Z,100878.06
2023-01-30T19:28:52.377Z,100880.59
2023-01-30T19:31:21.594Z,100884.16
2023-01-30T19:33:54.439Z,100889.91
2023-01-30T19:36:23.329Z,100888.66
2023-01-30T19:38:49.978Z,100873.13
2023-01-30T19:41:18.918Z,100886.66
2023-01-30T19:43:45.605Z,100882.44
2023-01-30T19:46:12.416Z,100878.47
2023-01-30T19:48:40.031Z,100885.16
2023-01-30T19:51:13.608Z,100881.44
2023-01-30T19:53:45.011Z,100887.44
2023-01-30T19:56:12.123Z,100886.25
2023-01-30T19:58:40.225Z,100891.75
2023-01-30T20:01:08.805Z,100892.75
2023-01-30T20:03:36.828Z,100888.75
2023-01-30T20:06:26.798Z,100896.56
2023-01-30T20:09:02.307Z,100891.56
2023-01-30T20:11:29.853Z,100898.06
2023-01-30T20:13:56.557Z,100886.28
2023-01-30T20:16:25.534Z,100892.81
2023-01-30T20:19:01.228Z,100885.78
2023-01-30T20:21:29.337Z,100890.56
2023-01-30T20:23:56.888Z,100904.59
2023-01-30T20:26:26.660Z,100900.31
2023-01-30T20:28:57.119Z,100903.81
2023-01-30T20:31:25.844Z,100906.59
2023-01-30T20:33:53.211Z,100903.09
2023-01-30T20:36:20.447Z,100909.81
2023-01-30T20:38:48.828Z,100905.03
2023-01-30T20:41:20.408Z,100903.28
2023-01-30T20:43:49.417Z,100906.69
2023-01-30T20:46:20.260Z,100911.50
2023-01-30T20:48:47.587Z,100902.78
2023-01-30T20:51:19.632Z,100904.25
2023-01-30T20:53:49.207Z,100897.03
2023-01-30T20:56:16.057Z,100906.28
2023-01-30T20:58:42.632Z,100899.34
2023-01-30T21:01:21.516Z,100912.59
2023-01-30T21:03:50.562Z,100908.56
2023-01-30T21:06:37.228Z,100906.19
2023-01-30T21:09:07.550Z,100911.94
2023-01-30T21:11:34.561Z,100908.19
2023-01-30T21:14:01.061Z,100912.94
2023-01-30T21:16:30.413Z,100901.69
2023-01-30T21:19:03.376Z,100905.97
2023-01-30T21:21:32.051Z,100903.53
2023-01-30T21:24:01.872Z,100899.03
2023-01-30T21:26:31.335Z,100899.25
2023-01-30T21:29:00.641Z,100892.50
2023-01-30T21:31:29.038Z,100904.72
2023-01-30T21:33:56.612Z,100904.47
2023-01-30T21:36:23.619Z,100911.50
2023-01-30T21:39:08.797Z,100906.25
2023-01-30T21:42:04.474Z,100908.53
2023-01-30T21:44:39.175Z,100905.03
2023-01-30T21:47:06.961Z,100901.47
2023-01-30T21:49:34.479Z,100901.50
2023-01-30T21:52:01.040Z,100900.22
2023-01-30T21:54:27.818Z,100896.44
2023-01-30T21:56:54.508Z,100905.47
2023-01-30T21:59:21.230Z,100903.00
2023-01-30T22:01:48.727Z,100898.19
2023-01-30T22:04:15.499Z,100911.75
2023-01-30T22:06:42.611Z,100905.03
2023-01-30T22:09:11.960Z,100908.47
2023-01-30T22:11:38.825Z,100908.00
2023-01-30T22:14:05.602Z,100906.03
2023-01-30T22:16:33.730Z,100897.50
2023-01-30T22:19:03.067Z,100899.25
2023-01-30T22:21:33.938Z,100906.06
2023-01-30T22:24:01.989Z,100904.75
2023-01-30T22:26:28.721Z,100914.28
2023-01-30T22:28:57.246Z,100904.28
2023-01-30T22:31:25.401Z,100908.06
2023-01-30T22:33:54.832Z,100906.28
2023-01-30T22:36:25.005Z,100897.06
2023-01-30T22:38:51.743Z,100898.56
2023-01-30T22:41:23.517Z,100906.56
2023-01-30T22:43:58.701Z,100919.59
2023-01-30T22:46:27.896Z,100913.56
2023-01-30T22:48:55.180Z,100923.78
2023-01-30T22:51:24.236Z,100930.88
2023-01-30T22:53:54.083Z,100934.88
2023-01-30T22:56:22.931Z,100938.66
2023-01-30T22:58:50.109Z,100939.91
2023-01-30T23:01:20.179Z,100944.66
2023-01-30T23:03:48.889Z,100936.91
2023-01-30T23:06:17.075Z,100935.41
2023-01-30T23:08:45.805Z,100935.13
2023-01-30T23:11:28.389Z,100936.38
2023-01-30T23:13:59.212Z,100934.88
2023-01-30T23:16:27.905Z,100938.31
2023-01-30T23:18:58.797Z,100934.53
2023-01-30T23:21:29.994Z,100924.81
2023-01-30T23:24:01.332Z,100930.53
2023-01-30T23:26:29.791Z,100924.06
2023-01-30T23:28:57.026Z,100922.06
2023-01-30T23:31:25.831Z,100916.19
2023-01-30T23:33:57.339Z,100916.72
2023-01-30T23:36:24.096Z,100907.34
2023-01-30T23:38:52.461Z,100905.69
2023-01-30T23:41:24.399Z,100911.53
2023-01-30T23:43:51.685Z,100902.09
2023-01-30T23:46:30.141Z,100897.81
2023-01-30T23:49:02.012Z,100897.81
2023-01-30T23:51:32.598Z,100903.56
2023-01-30T23:53:59.785Z,100905.09
2023-01-30T23:56:28.652Z,100903.56
2023-01-30T23:58:55.507Z,100903.28
